Date,TemperatureHighF,TemperatureAvgF,TemperatureLowF,DewpointHighF,DewpointAvgF,DewpointLowF,HumidityHigh,HumidityAvg,HumidityLow,PressureMaxIn,PressureMinIn,WindSpeedMaxMPH,WindSpeedAvgMPH,GustSpeedMaxMPH,PrecipitationSumIn
2012-1-1,58.3,49.1,36.0,43.9,26.4,8.6,74,42,28,29.82,29.35,19,6,19,0.00
2012-1-2,36.1,30.6,23.4,13.2,9.7,0.0,55,42,32,29.94,29.71,18,5,18,0.00
2012-1-3,32.9,25.8,20.7,9.6,5.2,1.9,55,42,30,30.09,29.85,10,2,10,0.00
2012-1-4,48.4,37.4,25.5,18.6,11.6,5.6,43,34,27,29.85,29.59,11,3,11,0.00
2012-1-5,55.9,43.0,32.5,26.4,21.7,17.7,67,45,27,29.76,29.56,11,2,11,0.00
2012-1-6,63.1,51.6,42.4,29.8,24.1,20.5,47,35,24,29.59,29.00,12,4,12,0.00
2012-1-7,57.4,50.6,39.2,45.3,28.2,15.2,67,43,25,29.79,29.41,10,2,10,0.00
2012-1-8,51.3,41.8,32.2,27.0,22.4,16.6,73,48,31,29.91,29.76,10,2,10,0.00
2012-1-9,53.8,44.2,37.0,25.7,21.2,18.8,53,40,29,29.82,29.68,8,1,8,0.00
2012-1-10,55.9,44.3,32.9,28.8,23.3,19.5,71,45,27,29.74,29.41,7,1,7,0.00
2012-1-11,80.2,47.2,43.3,51.4,42.9,25.3,98,87,43,29.44,29.00,10,2,10,0.12
2012-1-12,46.8,38.5,21.4,46.2,33.7,7.0,98,84,50,29.44,29.09,13,4,13,0.08
2012-1-13,27.0,23.1,18.7,12.6,10.0,5.7,68,57,52,29.76,29.41,12,4,12,0.00
2012-1-14,126.3,27.4,19.9,24.8,17.3,12.1,77,66,42,29.82,29.62,6,1,6,0.00
2012-1-15,39.0,30.8,22.6,22.2,19.4,0.0,100,64,42,30.06,29.82,8,2,8,0.00
2012-1-16,58.5,46.0,29.3,48.0,35.8,20.6,80,68,41,29.85,29.50,20,5,20,0.00
2012-1-17,63.3,50.9,33.8,57.0,40.2,19.4,95,67,51,29.79,29.29,20,7,20,0.34
2012-1-18,38.1,32.9,30.0,19.4,14.1,10.5,55,46,35,29.91,29.68,11,2,11,0.00
2012-1-19,45.3,35.6,28.8,22.7,19.0,14.7,64,51,38,29.71,29.50,12,3,12,0.00
2012-1-20,38.1,32.8,26.1,27.8,19.4,14.5,73,58,49,29.76,29.41,12,3,12,0.00
2012-1-21,35.4,32.6,30.9,30.7,26.8,23.1,89,79,72,29.74,29.41,13,5,13,0.00
2012-1-22,58.8,51.2,31.6,58.3,49.1,23.3,98,93,71,29.59,29.32,12,2,12,0.04
2012-1-23,59.4,51.7,41.5,58.3,43.7,30.8,98,76,47,29.62,29.23,20,4,20,0.49
2012-1-24,47.7,39.7,32.5,35.8,28.1,23.1,86,65,41,29.97,29.59,10,2,10,0.00
2012-1-25,40.5,36.4,31.8,39.9,32.0,24.5,98,84,68,29.94,29.65,115,2,115,0.26
2012-1-26,56.5,46.9,40.5,55.9,46.2,39.4,98,98,94,29.65,29.12,9,1,57,1.57
2012-1-27,41.5,39.9,37.6,40.8,35.5,31.7,98,85,71,29.68,29.23,10,2,10,0.04
2012-1-28,46.4,39.3,33.8,39.9,23.9,0.0,97,59,27,29.91,29.53,14,3,14,0.00
2012-1-29,52.2,39.9,32.4,20.3,16.3,11.2,53,40,21,29.91,29.74,17,4,17,0.00
2012-1-30,61.0,45.3,30.6,27.4,21.0,15.4,64,41,24,29.91,29.71,15,3,15,0.00
2012-1-31,63.1,55.6,49.8,35.3,25.2,18.0,47,31,26,29.79,29.62,13,5,15,0.00
2012-2-1,66.9,58.4,53.1,51.1,45.6,32.0,82,63,39,29.71,29.59,12,2,12,0.00
2012-2-2,58.5,50.2,40.6,40.7,34.4,25.7,72,56,29,29.97,29.68,6,1,6,0.00
2012-2-3,61.5,48.5,37.6,36.3,29.9,0.0,81,53,25,30.03,29.82,11,1,11,0.00
2012-2-4,53.2,47.5,43.7,46.8,40.0,25.7,98,80,35,29.82,29.62,8,1,8,0.37
2012-2-5,46.9,42.5,34.5,43.2,37.2,29.1,98,83,51,29.88,29.65,11,2,11,0.00
2012-2-6,53.1,40.1,30.0,37.8,28.5,20.7,97,68,35,29.85,29.76,7,1,7,0.00
2012-2-7,53.1,40.3,31.1,32.8,26.3,19.9,85,60,28,29.85,29.76,10,2,13,0.00
2012-2-8,41.0,37.4,34.3,32.5,29.5,23.6,85,73,58,29.94,29.82,6,2,9,0.00
2012-2-9,40.3,36.5,34.3,36.9,21.0,17.6,100,54,42,29.94,29.82,8,2,8,0.00
2012-2-10,40.1,36.9,34.9,32.9,24.1,18.6,86,60,50,29.82,29.56,10,2,10,0.05
2012-2-11,36.3,26.1,22.1,31.8,8.6,0.6,84,48,32,30.03,29.56,20,6,20,0.00
2012-2-12,43.5,28.8,20.7,16.8,6.8,2.2,47,39,30,30.03,29.91,9,3,9,0.00
2012-2-13,40.6,32.8,23.5,15.1,11.4,8.5,60,42,30,29.91,29.56,8,1,8,0.00
2012-2-14,41.4,37.5,34.3,36.7,30.9,14.7,91,78,40,29.68,29.47,9,2,9,0.16
2012-2-15,54.0,44.1,35.6,44.0,35.6,30.6,93,73,50,29.82,29.62,10,1,10,0.16
2012-2-16,52.5,47.6,39.4,50.9,43.0,32.8,98,85,58,29.79,29.53,115,2,115,0.16
2012-2-17,54.3,42.4,32.5,37.5,27.6,18.7,98,63,26,29.85,29.71,6,1,6,0.16
2012-2-18,54.3,43.5,34.7,34.6,25.9,0.0,80,53,27,29.71,29.62,14,2,14,0.16
2012-2-19,43.3,38.6,33.6,22.7,18.2,13.9,54,44,31,29.76,29.56,15,5,15,0.16
2012-2-20,50.7,38.2,27.5,22.1,18.6,15.4,71,47,27,29.91,29.71,11,2,11,0.16
2012-2-21,53.1,50.4,45.0,43.9,32.1,29.7,82,50,41,29.71,29.47,13,4,13,0.16
2012-2-22,62.6,51.4,38.7,42.2,30.6,23.7,83,48,25,29.50,29.09,19,3,19,0.16
2012-2-23,68.9,55.7,41.5,47.9,43.5,40.2,98,68,39,29.14,28.88,14,1,14,0.04
2012-2-24,55.4,46.3,37.6,50.2,29.2,18.2,87,53,32,29.65,28.94,17,4,17,0.04
2012-2-25,43.2,36.9,30.4,18.2,14.4,10.0,51,40,29,29.97,29.62,13,3,13,0.04
2012-2-26,57.4,41.0,26.1,21.0,16.1,10.3,68,41,19,30.00,29.76,12,2,12,0.04
2012-2-27,63.3,53.2,44.6,26.2,18.9,10.1,33,26,18,30.03,29.79,12,4,12,0.04
2012-2-28,68.0,51.8,36.7,32.7,22.8,12.0,47,33,23,30.06,29.56,10,2,10,0.00
2012-2-29,69.4,63.9,55.4,63.7,51.2,32.3,98,68,32,29.59,29.20,21,5,21,0.49
2012-3-1,66.9,59.7,47.8,38.4,28.8,20.5,42,31,24,29.50,29.20,13,2,13,0.49
2012-3-2,74.1,55.3,42.4,65.9,41.4,25.9,98,61,36,29.38,28.91,22,4,22,0.49
2012-3-3,44.8,40.3,35.1,27.0,21.5,15.6,59,47,31,29.53,29.35,13,3,13,0.00
2012-3-4,50.4,39.5,31.6,29.7,18.7,12.5,80,45,24,29.53,29.47,12,3,12,0.04
2012-3-5,39.6,34.3,30.2,32.6,24.9,18.3,94,69,45,30.06,29.47,6,1,6,0.33
2012-3-6,69.1,48.6,30.2,30.6,23.5,15.9,80,46,17,30.03,29.79,21,3,21,0.33
2012-3-7,71.6,61.5,50.5,39.4,30.1,13.8,40,31,19,29.91,29.74,26,6,26,0.33
2012-3-8,63.9,55.1,40.8,58.2,44.2,32.7,97,70,38,29.91,29.59,23,5,23,0.66
2012-3-9,54.7,45.2,36.0,33.2,20.0,9.2,78,42,18,30.09,29.91,18,4,18,0.33
2012-3-10,58.1,45.1,33.4,21.1,16.3,12.0,46,32,19,30.12,29.94,8,2,8,0.33
2012-3-11,72.9,54.0,35.4,31.3,26.0,20.3,69,38,19,29.97,29.76,11,2,11,0.33
2012-3-12,66.4,61.6,57.0,61.0,53.4,25.9,92,77,26,29.79,29.59,13,4,13,0.33
2012-3-13,77.9,67.7,60.4,64.4,53.9,42.1,97,66,30,29.76,29.62,11,2,11,0.33
2012-3-14,82.4,66.6,52.7,56.5,49.8,44.9,91,59,30,29.79,29.65,10,1,10,0.00
2012-3-15,84.4,68.7,60.8,60.6,54.9,46.2,98,65,31,29.79,29.65,13,2,13,0.58
2012-3-16,70.5,63.1,56.3,64.8,60.0,55.6,98,90,69,29.79,29.68,10,1,10,0.37
2012-3-17,80.4,66.2,55.6,66.7,59.6,54.3,98,83,44,29.79,29.68,14,1,14,0.33
2012-3-18,82.6,69.4,58.8,66.5,59.6,54.4,98,75,40,29.79,29.62,10,2,10,0.17
2012-3-19,84.7,73.3,62.4,56.9,48.1,37.5,71,43,21,29.74,29.59,12,2,12,0.00
2012-3-20,85.3,73.7,63.7,55.7,50.3,45.6,73,46,28,29.71,29.59,9,1,9,0.00
2012-3-21,87.1,73.3,62.2,59.3,51.0,43.1,83,49,22,29.76,29.59,11,1,11,0.00
2012-3-22,84.4,71.5,61.3,60.9,52.0,0.0,82,52,31,29.76,29.59,10,1,10,0.04
2012-3-23,72.7,66.2,59.9,70.2,63.7,54.8,98,92,67,29.65,29.35,12,1,12,1.49
2012-3-24,66.0,57.8,50.9,59.3,48.4,37.6,98,74,36,29.50,29.41,8,2,8,0.05
2012-3-25,70.9,61.2,50.7,56.6,49.9,45.5,95,69,43,29.62,29.47,12,2,12,0.00
2012-3-26,68.2,60.4,52.7,54.3,38.4,20.7,90,50,22,29.85,29.62,15,3,15,0.00
2012-3-27,72.5,56.4,42.3,39.2,27.2,20.5,46,33,22,29.88,29.59,10,2,10,0.00
2012-3-28,82.0,69.0,57.9,59.0,46.4,39.0,69,45,31,29.59,29.47,10,2,10,0.12
2012-3-29,72.9,62.5,52.3,47.9,39.4,32.8,76,46,23,29.68,29.53,8,1,8,0.00
2012-3-30,83.5,68.6,56.3,52.8,42.5,0.0,64,39,27,29.56,29.29,14,2,14,0.08
2012-3-31,67.5,61.2,54.3,59.2,51.1,40.9,95,72,43,29.50,29.35,8,2,9,0.08
2012-4-1,77.9,61.2,51.3,68.1,55.1,44.4,98,82,53,29.50,29.26,16,1,16,1.00
2012-4-2,72.3,65.9,61.5,63.1,53.4,41.0,98,68,39,30.24,29.26,9,1,9,0.00
2012-4-3,86.9,72.9,57.2,58.8,50.5,42.0,75,47,30,29.53,29.35,6,1,6,0.00
2012-4-4,80.4,68.5,61.0,68.5,61.2,53.6,98,79,44,29.44,29.29,15,1,15,0.42
2012-4-5,64.0,56.6,46.9,56.4,34.6,22.6,92,48,24,29.56,29.35,16,4,16,0.50
2012-4-6,63.9,52.2,41.0,29.2,25.7,20.6,58,38,21,29.79,29.56,19,4,19,0.00
2012-4-7,70.3,56.0,40.6,34.4,27.3,18.8,74,37,17,29.91,29.74,8,1,8,0.00
2012-4-8,69.4,56.4,49.5,41.5,29.7,20.1,57,38,17,29.85,29.71,15,1,15,0.00
2012-4-9,71.1,59.4,47.1,33.4,25.3,14.4,55,30,15,29.85,29.68,13,2,13,0.00
2012-4-10,62.6,53.3,43.0,30.3,20.0,9.7,50,28,16,29.82,29.71,14,2,15,0.00
2012-4-11,56.1,46.8,38.3,29.5,20.3,15.3,66,36,25,29.97,29.79,12,2,13,0.00
2012-4-12,65.1,50.8,36.7,34.8,27.5,20.6,83,46,20,30.06,29.82,6,1,8,0.00
2012-4-13,68.4,56.8,41.0,40.5,32.2,25.8,80,44,22,29.94,29.82,10,1,11,0.00
2012-4-14,71.4,64.4,53.8,58.1,48.5,37.2,86,57,39,29.85,29.65,9,2,9,0.04
2012-4-15,83.5,72.5,61.7,55.3,48.7,42.5,72,45,24,29.76,29.53,13,4,13,0.00
2012-4-16,73.9,67.1,55.4,62.7,47.5,37.0,89,51,33,29.97,29.53,12,3,12,0.13
2012-4-17,64.0,58.7,52.5,49.2,41.5,33.6,82,55,33,30.06,29.94,7,1,8,0.00
2012-4-18,72.0,60.8,49.8,43.7,34.0,21.5,76,41,16,29.94,29.74,10,2,10,0.00
2012-4-19,79.0,63.7,47.3,44.1,37.9,30.9,79,43,20,29.79,29.59,10,1,10,0.00
2012-4-20,80.6,67.5,50.5,54.4,47.2,42.4,91,52,29,29.59,29.41,13,3,17,0.12
2012-4-21,55.0,50.4,45.0,49.0,39.3,34.8,89,66,55,29.71,29.56,9,3,10,0.12
2012-4-22,58.1,50.7,44.4,41.4,28.5,20.9,86,45,25,29.65,29.56,15,4,17,0.00
2012-4-23,63.3,52.4,41.4,28.1,19.7,14.3,48,29,16,29.62,29.50,17,4,22,0.00
2012-4-24,64.8,55.5,44.4,46.9,32.2,24.2,73,43,24,29.56,29.47,14,1,14,0.00
2012-4-25,77.2,65.6,51.6,61.6,54.4,45.9,91,69,39,29.50,29.35,6,1,6,0.00
2012-4-26,82.6,69.8,53.1,65.3,48.6,22.5,96,52,24,29.76,29.32,17,4,17,0.09
2012-4-27,66.7,56.6,44.6,27.9,22.5,15.1,40,27,17,29.94,29.71,11,3,11,0.00
2012-4-28,77.7,64.7,53.2,56.5,42.4,23.9,91,45,27,29.82,29.62,18,2,18,0.50
2012-4-29,77.7,66.5,53.1,61.0,57.7,52.2,98,76,54,29.91,29.74,12,2,12,0.58
2012-4-30,84.7,71.6,61.7,68.2,60.9,50.4,98,73,32,29.79,29.62,8,1,8,0.58
2012-5-1,83.1,72.1,64.8,72.6,65.8,60.0,98,83,52,29.79,29.59,8,1,8,0.58
2012-5-2,90.7,79.6,69.8,65.7,59.5,53.4,76,52,30,29.76,29.65,8,2,8,0.58
2012-5-3,86.9,75.7,67.8,68.2,61.2,56.4,89,63,38,29.79,29.71,8,2,8,0.00
2012-5-4,87.1,73.5,68.0,68.5,65.0,60.3,91,76,44,29.74,29.53,13,1,13,0.04
2012-5-5,84.4,73.5,65.7,70.7,65.0,56.5,98,78,43,29.68,29.59,15,1,15,0.75
2012-5-6,86.4,76.8,68.0,71.5,64.0,55.9,98,68,37,29.74,29.59,8,1,8,0.04
2012-5-7,88.3,75.7,66.7,67.6,62.3,53.8,97,67,32,29.59,29.44,8,2,8,0.04
2012-5-8,68.9,68.2,68.2,67.0,66.9,64.7,96,95,88,29.53,29.50,0,0,4,0.00
2012-5-9,68.2,67.1,60.1,67.0,61.6,36.6,96,86,34,29.65,29.50,11,0,11,0.04
2012-5-10,72.0,60.9,52.0,45.8,37.6,28.9,77,46,21,29.74,29.59,9,2,11,0.00
2012-5-11,77.9,67.8,51.4,51.1,39.2,28.7,85,40,20,29.91,29.68,7,1,7,0.00
2012-5-12,72.9,68.4,62.2,62.7,50.3,43.3,96,55,36,29.97,29.88,4,1,5,0.04
2012-5-13,65.1,62.5,60.8,64.5,61.8,59.7,98,98,93,29.91,29.71,8,1,8,2.28
2012-5-14,76.3,66.9,62.1,64.4,59.2,49.6,98,80,41,29.79,29.68,13,2,13,0.00
2012-5-15,80.8,74.2,64.9,61.4,54.9,46.9,78,52,31,29.76,29.65,9,1,9,0.00
2012-5-16,84.7,71.7,59.4,63.3,54.0,0.0,98,59,29,29.71,29.59,9,1,9,0.00
2012-5-17,78.6,68.9,59.5,43.0,37.5,30.5,49,33,22,29.79,29.68,11,3,11,0.00
2012-5-18,85.8,70.8,57.2,52.0,46.6,39.4,67,44,25,29.82,29.68,57,1,57,0.00
2012-5-19,86.7,75.3,63.9,59.5,54.3,48.7,82,51,29,29.85,29.71,6,1,6,0.00
2012-5-20,87.8,76.4,66.0,64.2,57.7,47.0,89,56,27,29.88,29.71,10,1,10,0.00
2012-5-21,78.8,72.6,67.1,61.5,57.5,0.0,100,60,42,29.76,29.65,11,2,11,0.00
2012-5-22,79.2,68.4,59.9,54.6,48.5,43.7,68,50,31,29.71,29.56,9,3,10,0.00
2012-5-23,84.6,71.9,61.0,59.0,51.9,45.1,80,52,28,29.62,29.53,6,1,6,0.00
2012-5-24,90.1,77.4,64.2,62.8,50.9,38.8,89,46,18,30.00,29.53,11,2,11,0.00
2012-5-25,91.4,80.0,72.1,63.0,56.6,45.5,59,46,30,30.09,29.91,6,2,6,0.00
2012-5-26,93.2,84.1,71.6,68.6,60.0,53.6,84,47,28,30.21,30.06,6,1,6,0.00
2012-5-27,93.4,82.0,70.9,68.8,62.6,55.2,88,56,29,30.18,30.00,5,1,5,0.00
2012-5-28,93.7,82.6,72.5,70.9,64.6,55.7,90,58,29,30.06,29.88,6,1,6,0.00
2012-5-29,81.0,74.2,68.0,74.3,67.3,61.3,98,80,61,30.00,29.88,17,1,17,4.12
2012-5-30,80.6,73.5,64.9,70.3,57.1,44.1,98,64,30,29.97,29.91,10,1,10,0.00
2012-5-31,85.1,77.0,66.2,65.8,51.4,45.7,98,46,29,29.91,29.71,17,2,17,0.62
2012-6-1,66.6,61.8,57.2,66.0,58.7,50.3,98,90,72,30.00,29.68,12,1,12,0.42
2012-6-2,73.0,62.8,53.2,53.9,48.9,41.2,96,65,33,30.06,29.94,7,1,7,0.00
2012-6-3,82.4,74.6,62.1,61.4,51.7,44.8,87,47,27,30.00,29.88,7,1,7,0.00
2012-6-4,72.9,67.4,63.9,66.0,59.5,48.8,98,78,43,29.97,29.82,10,1,10,0.16
2012-6-5,76.8,67.4,58.6,63.3,51.4,40.0,98,63,29,30.00,29.88,172,2,172,0.00
2012-6-6,77.4,67.0,57.7,52.0,46.2,37.3,78,50,25,30.09,30.00,11,2,11,0.00
2012-6-7,83.3,70.1,57.4,56.0,45.6,34.3,91,48,19,30.18,30.06,12,1,12,0.00
2012-6-8,87.1,73.7,60.3,57.8,46.5,34.8,88,45,16,30.18,30.03,10,1,10,0.00
2012-6-9,89.2,76.0,62.4,59.5,51.8,41.4,83,47,21,30.09,29.97,4,0,4,0.00
2012-6-10,85.5,76.3,68.2,62.9,59.1,53.2,80,57,37,30.12,30.00,6,0,6,0.00
2012-6-11,87.1,76.9,71.2,69.7,66.2,60.9,89,71,47,30.06,29.91,4,1,4,0.00
2012-6-12,85.8,76.4,69.1,69.7,57.3,34.6,97,60,20,30.09,29.94,13,1,13,0.00
2012-6-13,84.9,73.3,63.3,46.8,42.2,37.9,46,34,21,30.18,30.06,9,2,11,0.00
2012-6-14,87.1,74.4,63.0,51.9,42.9,34.4,65,36,18,30.18,30.09,10,2,10,0.00
2012-6-15,92.3,77.3,62.4,58.7,51.5,40.9,75,44,17,30.21,30.06,6,1,6,0.00
2012-6-16,90.5,78.4,52.3,74.2,64.7,38.9,89,64,38,30.27,30.09,10,1,10,0.12
2012-6-17,81.0,76.4,72.7,75.2,67.6,63.8,93,75,59,30.12,29.94,8,2,8,0.29
2012-6-18,92.8,80.8,71.4,67.9,61.1,51.6,88,56,26,30.03,29.94,8,2,8,0.00
2012-6-19,93.6,82.1,71.8,63.2,58.4,53.1,72,47,27,30.18,30.03,6,1,6,0.00
2012-6-20,93.2,81.9,70.7,64.8,59.5,53.8,80,50,28,30.24,30.06,6,1,6,0.00
2012-6-21,93.9,82.4,72.1,66.9,58.1,45.5,81,48,21,30.12,29.94,6,1,6,0.00
2012-6-22,90.7,80.5,73.4,66.7,52.7,38.8,78,43,18,30.03,29.94,12,2,12,0.00
2012-6-23,91.8,80.2,68.7,49.5,43.4,35.6,50,29,15,30.09,30.00,9,2,9,0.00
2012-6-24,93.2,82.7,70.5,57.4,46.4,36.3,62,31,14,30.06,29.94,8,1,8,0.00
2012-6-25,90.5,81.1,72.7,61.4,49.5,30.8,64,37,15,30.00,29.88,14,2,14,0.00
2012-6-26,84.9,74.0,64.2,37.4,33.0,30.0,33,23,16,30.09,29.97,13,2,13,0.00
2012-6-27,92.8,76.8,62.2,51.9,43.0,36.2,66,33,17,30.12,29.97,6,0,6,0.00
2012-6-28,104.4,85.0,67.5,53.2,47.3,35.6,57,31,12,30.06,29.88,4,0,4,0.00
2012-6-29,104.4,89.1,77.7,61.8,52.6,39.2,44,30,12,29.97,29.85,10,0,10,0.92
2012-6-30,102.7,88.0,75.4,66.7,56.9,38.7,71,40,12,29.94,29.82,6,1,9,0.00
2012-7-1,102.4,87.1,74.7,68.1,58.0,42.5,79,42,17,30.09,29.91,23,1,23,0.08
2012-7-2,99.0,83.7,72.5,67.9,60.3,47.0,80,51,18,30.12,29.94,10,1,10,0.00
2012-7-3,96.6,84.4,73.2,62.4,58.8,53.2,67,44,25,30.09,29.94,6,1,6,0.00
2012-7-4,100.9,87.5,76.3,67.1,60.7,49.7,71,44,18,30.06,29.94,6,1,6,0.00
2012-7-5,100.0,86.5,72.1,75.3,61.1,44.7,92,50,16,30.06,29.94,11,1,11,0.21
2012-7-6,101.8,87.9,75.9,61.8,55.0,43.8,59,36,15,30.06,29.94,6,1,6,0.25
2012-7-7,103.6,90.6,79.2,69.5,57.5,44.3,70,38,14,30.06,29.94,9,1,9,0.04
2012-7-8,94.6,82.5,75.4,70.6,65.1,57.1,85,58,36,30.06,29.94,23,1,23,0.04
2012-7-9,87.1,78.6,73.0,73.8,60.7,46.6,94,58,26,30.09,30.00,9,1,9,0.00
2012-7-10,94.6,81.7,70.7,62.6,51.3,40.1,74,41,16,30.09,30.00,9,1,9,0.00
2012-7-11,95.5,83.3,72.9,57.3,49.2,37.1,54,33,14,30.15,30.00,10,1,10,0.00
2012-7-12,86.9,78.1,72.5,72.1,61.8,51.5,98,60,37,30.15,30.06,8,1,8,0.66
2012-7-13,81.0,75.4,70.2,73.4,68.8,64.6,98,82,58,30.18,30.06,7,1,7,0.66
2012-7-14,86.0,76.5,73.2,77.3,72.5,61.0,98,88,47,30.21,30.12,13,0,13,1.25
2012-7-15,89.6,78.7,73.2,73.4,70.5,62.9,98,79,43,30.21,30.06,5,1,5,0.66
2012-7-16,94.6,83.6,74.7,75.2,68.8,58.1,97,65,31,30.15,29.97,8,1,8,0.66
2012-7-17,97.5,86.0,76.5,71.6,65.3,57.4,80,53,27,30.06,29.94,7,1,7,0.66
2012-7-18,98.8,83.9,75.2,76.2,69.2,59.2,89,64,30,30.06,29.94,10,1,10,0.66
2012-7-19,98.4,81.8,72.9,74.4,70.3,62.3,98,72,34,30.06,29.88,24,2,24,1.33
2012-7-20,86.5,76.6,72.5,78.0,71.9,62.7,98,87,55,30.09,29.94,11,2,13,0.29
2012-7-21,88.0,77.1,68.5,65.5,59.7,50.8,90,58,30,30.15,30.06,10,2,10,0.05
2012-7-22,92.5,80.2,68.7,68.3,57.3,43.5,93,52,19,30.21,30.12,6,1,6,0.05
2012-7-23,97.2,85.6,75.7,72.8,65.1,53.1,83,53,29,30.18,30.06,6,2,6,0.00
2012-7-24,97.3,86.1,80.2,70.5,65.9,59.8,66,52,31,30.09,29.94,10,2,10,0.00
2012-7-25,100.0,87.7,77.9,73.8,67.3,56.8,84,55,26,29.97,29.82,6,2,6,0.00
2012-7-26,97.9,87.9,77.4,74.8,65.3,59.4,89,49,32,29.91,29.76,8,2,8,0.04
2012-7-27,97.0,81.8,72.0,74.8,67.1,50.5,96,67,22,30.03,29.88,20,2,20,0.50
2012-7-28,88.0,77.4,68.9,72.3,62.0,50.4,98,65,29,30.12,30.00,10,2,10,0.04
2012-7-29,88.5,77.9,69.4,66.5,57.2,42.5,87,53,22,30.18,30.03,8,1,8,0.00
2012-7-30,90.7,79.9,69.3,65.3,57.9,51.3,84,50,29,30.09,29.94,6,1,6,0.00
2012-7-31,94.5,83.0,73.4,67.3,59.7,47.2,78,49,21,30.03,29.88,6,1,8,0.00
2012-8-1,93.9,83.7,75.7,67.1,55.5,37.0,71,44,14,30.00,29.88,12,2,12,0.00
2012-8-2,96.1,81.7,68.4,59.6,49.9,37.7,71,38,14,30.00,29.85,7,1,7,0.00
2012-8-3,84.0,77.4,73.2,77.2,70.6,51.5,98,81,35,29.97,29.88,8,1,8,0.34
2012-8-4,90.9,80.6,76.3,79.0,72.9,0.0,98,79,49,30.09,29.94,8,1,8,0.00
2012-8-5,86.5,80.0,76.8,73.2,70.6,66.6,84,73,55,30.18,30.06,6,2,6,0.00
2012-8-6,90.1,80.2,72.7,73.3,61.6,46.9,98,60,25,30.21,30.06,8,1,8,0.00
2012-8-7,93.6,81.2,70.5,67.8,57.3,44.6,79,49,19,30.12,29.97,6,1,6,0.00
2012-8-8,96.8,84.0,70.0,63.1,55.1,43.7,76,42,17,30.09,29.94,8,1,8,0.00
2012-8-9,90.7,80.5,75.4,67.1,59.4,47.4,72,50,30,30.00,29.82,17,2,17,0.00
2012-8-10,82.4,75.4,70.5,66.0,55.6,45.6,78,52,29,29.97,29.76,13,2,13,0.00
2012-8-11,84.6,70.8,61.9,52.3,42.9,30.9,69,41,16,30.06,29.97,8,1,10,0.00
2012-8-12,86.5,72.7,60.1,54.7,43.5,28.1,77,41,13,30.18,30.03,10,1,10,0.00
2012-8-13,76.6,71.8,66.7,66.7,59.7,44.6,88,66,35,30.09,29.94,11,1,11,0.12
2012-8-14,81.7,73.9,70.2,67.8,61.0,52.5,90,67,39,30.00,29.94,10,1,10,0.12
2012-8-15,86.9,77.7,68.0,63.5,52.1,39.3,81,47,19,30.09,29.97,8,1,8,0.12
2012-8-16,90.9,80.4,69.4,68.1,58.6,45.7,95,53,29,30.06,29.88,8,2,8,0.62
2012-8-17,82.6,73.1,68.0,68.8,59.8,38.7,98,72,22,30.03,29.94,9,1,9,0.05
2012-8-18,82.4,72.8,63.0,54.4,44.9,35.9,72,41,20,30.06,29.94,9,1,9,0.00
2012-8-19,82.8,72.1,63.1,51.2,41.6,27.9,61,36,16,30.00,29.91,10,1,10,0.00
2012-8-20,84.6,76.9,65.1,46.2,38.3,31.8,47,26,16,30.06,29.97,10,1,10,0.00
2012-8-21,81.1,72.2,66.4,58.2,45.4,40.4,64,39,25,30.15,30.03,8,0,8,0.03
2012-8-22,86.9,72.7,60.4,58.5,48.2,34.9,88,49,18,30.21,30.09,6,1,6,0.00
2012-8-23,90.9,75.4,62.1,57.6,48.6,23.6,81,45,15,30.21,30.06,7,1,7,0.00
2012-8-24,94.1,78.3,64.6,59.3,50.5,35.6,80,44,14,30.15,30.03,8,1,8,0.00
2012-8-25,92.8,79.6,68.7,60.8,53.3,41.0,72,44,18,30.18,30.06,8,1,8,0.00
2012-8-26,92.7,80.4,69.8,65.5,58.1,49.3,80,50,24,30.24,30.06,5,1,5,0.00
2012-8-27,89.4,80.1,73.2,74.8,63.8,58.7,96,60,38,30.15,30.03,10,1,10,0.05
2012-8-28,90.1,79.9,71.1,74.5,52.2,35.0,98,46,15,30.15,30.00,12,3,12,0.00
2012-8-29,90.5,78.7,68.0,56.7,46.8,30.3,66,36,12,30.15,30.00,11,2,11,0.00
2012-8-30,93.9,86.5,67.1,59.5,49.3,43.4,63,29,18,30.15,30.06,7,2,7,0.00
2012-8-31,89.6,81.4,74.8,70.6,66.6,59.5,82,62,40,30.27,30.09,6,1,6,0.00
2012-9-1,88.2,79.0,72.9,77.7,70.4,64.7,98,77,48,30.15,30.00,11,1,11,0.79
2012-9-2,77.7,74.4,72.7,77.1,73.8,72.1,98,98,96,30.03,29.82,9,1,9,0.74
2012-9-3,76.1,74.3,73.9,75.5,73.7,73.3,98,98,98,29.91,29.85,115,1,115,0.05
2012-9-4,88.2,78.9,73.4,77.8,73.0,66.7,98,84,50,29.97,29.47,4,0,4,0.05
2012-9-5,90.1,76.9,71.1,77.0,71.8,59.0,98,87,42,29.97,29.85,30,1,30,1.16
2012-9-6,86.9,76.2,69.6,72.6,69.4,64.8,98,82,50,30.06,29.94,6,0,6,0.05
2012-9-7,90.7,80.0,71.2,73.2,66.5,55.1,98,68,32,30.03,29.74,25,1,25,0.00
2012-9-8,75.6,68.8,63.1,69.2,54.6,36.2,98,66,25,30.06,29.74,17,2,25,1.12
2012-9-9,77.5,67.6,58.3,55.5,48.0,36.5,86,53,23,30.15,30.00,12,2,12,0.00
2012-9-10,78.3,69.0,60.8,54.0,45.8,34.4,77,47,21,30.30,30.12,7,2,7,0.00
2012-9-11,81.3,69.2,58.1,55.7,48.8,37.5,87,53,21,30.36,30.18,8,1,8,0.00
2012-9-12,83.7,71.9,62.4,60.6,54.6,45.7,90,59,30,30.39,30.24,6,1,6,0.00
2012-9-13,83.3,73.7,66.2,64.1,56.2,47.2,89,58,30,30.39,30.24,6,1,6,0.00
2012-9-14,81.0,69.6,64.4,63.3,57.2,50.0,92,67,36,30.36,30.24,11,2,11,0.00
2012-9-15,76.5,67.1,58.5,51.5,42.6,32.3,71,45,21,30.39,30.18,9,1,9,0.00
2012-9-16,78.8,69.8,62.2,61.2,49.1,41.5,77,49,31,30.24,30.06,6,1,6,0.00
2012-9-17,71.1,69.1,67.6,68.8,65.3,60.7,98,88,76,30.09,29.82,6,0,6,0.04
2012-9-18,69.6,65.7,56.8,67.8,52.4,27.6,98,69,23,30.12,29.71,15,2,15,0.05
2012-9-19,70.0,58.9,48.0,46.0,36.7,26.5,85,48,22,30.30,30.12,8,1,8,0.00
2012-9-20,79.3,64.9,50.7,47.9,43.0,37.5,80,49,23,30.15,29.97,7,1,7,0.00
2012-9-21,77.2,68.5,59.2,56.8,52.9,46.8,85,59,43,30.12,29.82,9,1,9,0.00
2012-9-22,75.2,67.6,55.9,55.6,39.5,18.5,75,40,16,30.24,29.85,18,3,18,0.00
2012-9-23,66.7,56.2,45.7,39.5,31.2,25.4,75,42,23,30.33,30.24,8,1,8,0.00
2012-9-24,70.2,57.2,45.0,43.4,34.6,14.6,82,48,19,30.39,30.12,6,1,6,0.00
2012-9-25,70.7,62.5,56.5,65.7,51.6,37.2,98,69,47,30.18,30.00,7,1,7,0.45
2012-9-26,77.0,68.6,63.5,68.0,64.5,57.8,98,88,64,30.21,30.06,13,1,13,1.58
2012-9-27,75.4,68.9,64.9,72.1,66.0,62.5,98,91,66,30.24,30.12,7,0,7,0.16
2012-9-28,76.1,69.6,64.0,73.0,64.8,50.6,98,86,56,30.18,30.06,10,1,10,0.16
2012-9-29,73.0,64.2,55.9,61.2,53.5,45.1,94,71,38,30.15,30.00,8,1,8,0.16
2012-9-30,74.8,64.6,55.4,59.9,51.0,41.0,98,66,33,30.03,29.88,6,1,6,0.16
2012-10-1,65.5,61.2,59.4,60.1,51.5,40.0,98,73,45,29.91,29.68,10,2,10,0.62
2012-10-2,66.9,63.2,60.8,65.4,61.3,57.7,98,94,82,29.97,29.65,6,1,6,0.20
2012-10-3,75.4,64.8,58.1,59.0,51.3,41.3,92,66,32,30.21,29.97,7,1,7,0.20
2012-10-4,78.8,66.3,57.6,58.4,52.8,44.9,92,66,33,30.33,30.18,7,1,7,0.20
2012-10-5,76.8,65.7,48.7,60.8,54.7,41.7,92,69,46,30.21,30.00,16,1,16,0.20
2012-10-6,58.8,50.7,44.1,43.7,34.2,23.3,93,58,26,30.27,30.12,11,2,11,0.20
2012-10-7,57.4,51.1,46.2,34.1,29.9,22.9,62,45,28,30.27,30.18,9,2,9,0.20
2012-10-8,58.6,49.9,44.6,38.4,33.0,22.3,77,55,25,30.33,30.18,6,0,6,0.20
2012-10-9,65.5,52.3,41.0,44.3,37.3,32.0,87,61,30,30.27,30.06,6,1,6,0.20
2012-10-10,59.7,53.8,44.2,43.6,33.7,0.0,69,49,25,30.36,30.03,13,2,13,0.20
2012-10-11,63.3,50.1,38.1,38.4,31.8,25.4,82,54,24,30.41,30.24,6,0,6,0.20
2012-10-12,66.4,57.2,48.7,47.7,39.6,34.2,83,55,32,30.41,30.24,9,1,9,0.20
2012-10-13,74.8,61.8,48.9,59.5,49.2,35.2,74,64,46,30.39,30.09,8,2,8,0.20
2012-10-14,75.4,68.9,63.9,59.5,54.0,45.8,85,60,37,30.09,29.82,17,4,17,0.04
2012-10-15,65.5,58.4,51.6,58.8,38.9,27.2,83,51,25,30.06,29.91,13,1,13,0.00
2012-10-16,69.6,57.0,45.0,44.0,39.5,34.0,86,56,28,30.09,29.88,6,1,6,0.00
2012-10-17,75.4,65.3,55.9,50.8,42.5,32.3,77,47,24,29.91,29.59,12,2,12,0.00
2012-10-18,68.5,59.4,54.3,54.7,40.5,25.1,93,55,24,29.79,29.53,24,3,24,0.25
2012-10-19,59.2,54.0,51.1,44.1,35.5,27.8,75,52,35,29.85,29.65,8,2,8,0.04
2012-10-20,57.4,52.7,48.7,45.7,43.2,39.1,83,70,51,30.09,29.82,5,0,5,0.00
2012-10-21,71.1,56.8,43.9,49.7,43.0,38.5,94,65,32,30.21,30.06,7,1,7,0.00
2012-10-22,79.5,67.1,57.2,52.5,46.8,41.6,72,51,30,30.21,30.06,6,1,6,0.00
2012-10-23,81.0,69.6,59.7,47.4,41.2,33.3,62,38,20,30.15,30.03,7,2,7,0.00
2012-10-24,80.6,69.8,61.2,49.5,43.9,39.2,63,40,26,30.18,30.06,6,1,6,0.00
2012-10-25,81.3,67.2,55.4,53.9,46.9,39.0,81,52,25,30.15,29.97,10,1,10,0.00
2012-10-26,69.6,53.9,46.0,48.9,44.5,38.8,95,74,43,30.27,30.00,14,4,14,0.62
2012-10-27,55.9,49.7,43.9,43.8,34.9,26.0,92,59,35,30.24,30.12,18,5,18,0.00
2012-10-28,52.5,48.4,43.0,29.1,24.7,19.6,54,40,29,30.18,30.09,15,6,15,0.00
2012-10-29,56.7,47.9,40.1,23.6,17.7,9.7,45,31,17,30.15,29.91,24,6,24,0.00
2012-10-30,47.8,45.0,43.5,30.8,25.9,21.9,59,47,37,29.91,29.74,18,3,18,0.00
2012-10-31,53.8,47.2,39.9,28.5,22.6,20.1,50,38,28,29.97,29.82,11,1,11,0.00
2012-11-1,59.4,47.7,36.0,24.1,19.4,11.3,55,35,17,30.03,29.94,7,1,7,0.00
2012-11-2,56.8,51.0,34.2,28.4,23.8,0.0,55,35,25,30.15,29.88,11,2,11,0.00
2012-11-3,50.5,43.6,38.3,38.4,33.3,27.0,76,67,50,30.24,30.09,12,2,12,4.28
2012-11-4,53.1,44.8,38.5,36.1,30.8,21.2,79,61,29,30.27,30.18,9,3,9,0.00
2012-11-5,52.0,46.7,35.1,30.8,26.3,24.0,80,46,36,30.27,30.12,8,2,8,0.00
2012-11-6,56.3,46.9,36.1,37.7,26.8,21.7,75,48,27,30.15,29.97,6,1,6,0.00
2012-11-7,50.5,46.3,41.2,41.4,37.6,32.4,87,73,52,30.21,29.94,7,1,7,0.03
2012-11-8,55.8,43.8,35.1,38.7,32.2,27.6,90,67,36,30.33,30.18,6,0,6,0.00
2012-11-9,64.9,49.4,34.9,40.4,32.8,28.5,88,58,26,30.33,30.18,8,1,8,0.00
2012-11-10,74.5,60.6,50.0,41.2,33.4,28.4,52,37,22,30.30,30.18,10,2,229,4.22
2012-11-11,72.3,63.2,55.9,38.9,31.7,26.4,39,31,22,30.30,30.12,15,4,15,0.00
2012-11-12,64.6,51.4,42.1,52.0,31.6,20.2,77,48,38,30.39,30.06,13,4,13,0.38
2012-11-13,47.8,39.0,30.7,29.0,21.8,13.2,84,56,27,30.59,30.39,10,1,10,0.04
2012-11-14,49.1,43.3,34.2,22.2,20.1,13.1,61,40,29,30.56,30.41,9,2,9,0.04
2012-11-15,50.5,40.0,31.5,27.0,23.9,20.2,78,55,31,30.44,30.36,8,1,230,0.00
2012-11-16,52.9,41.6,32.9,30.2,25.7,20.3,82,56,29,30.50,30.41,9,1,9,0.04
2012-11-17,59.4,44.0,32.7,32.5,26.3,0.0,82,54,24,30.56,30.44,6,1,6,0.92
2012-11-18,61.3,45.1,33.4,32.3,25.6,18.9,80,51,21,30.50,30.39,6,0,6,0.04
2012-11-19,62.4,47.7,35.6,33.6,27.8,21.9,77,50,24,30.41,30.24,5,0,5,1.49
2012-11-20,65.7,54.9,42.1,36.9,32.3,28.3,73,44,26,30.27,30.09,4,0,4,0.04
2012-11-21,63.3,52.6,44.6,40.9,34.3,28.6,71,52,27,30.33,30.18,6,1,7,0.00
2012-11-22,56.8,43.3,37.9,42.2,34.9,32.8,87,74,40,30.30,30.12,7,0,7,0.00
2012-11-23,58.8,50.0,34.3,43.1,23.4,10.3,62,36,26,30.30,30.06,16,5,16,0.00
2012-11-24,38.7,33.0,27.9,16.1,11.3,8.2,52,40,31,30.36,30.21,10,2,10,0.00
2012-11-25,58.5,43.5,31.1,20.9,16.3,13.3,53,36,19,30.21,29.94,11,2,11,0.00
2012-11-26,50.7,43.7,34.3,33.8,24.4,18.1,66,47,35,30.30,30.09,172,1,172,0.04
2012-11-27,45.1,38.9,32.2,33.0,24.8,17.9,78,58,37,30.41,30.27,14,3,14,0.04
2012-11-28,48.0,36.4,28.4,26.6,20.4,14.4,79,56,28,30.50,30.36,8,1,8,0.00
2012-11-29,55.4,39.9,27.9,27.3,21.7,18.2,75,51,27,30.47,30.30,8,1,8,0.00
2012-11-30,61.0,51.1,44.2,32.5,27.4,21.2,57,40,33,30.33,30.18,12,3,230,0.00
2012-12-1,67.5,57.6,46.9,39.8,35.4,32.5,58,44,32,30.33,30.18,11,2,11,0.00
2012-12-2,65.8,62.1,59.4,57.4,48.8,38.0,82,63,44,30.24,30.12,17,4,17,0.09
2012-12-3,74.8,66.7,62.2,57.2,49.5,42.2,81,56,35,30.24,30.12,13,4,13,0.04
2012-12-4,67.5,60.8,48.6,60.5,48.7,38.0,96,66,43,30.30,30.06,14,4,14,0.37
2012-12-5,55.9,47.3,39.9,44.3,34.9,25.3,98,66,35,30.41,30.30,8,2,9,0.00
2012-12-6,52.3,44.1,34.9,48.5,34.0,25.1,95,69,46,30.33,30.06,6,1,6,0.08
2012-12-7,58.1,54.6,49.8,57.5,54.0,48.5,98,98,95,30.06,29.94,5,0,5,1.13
2012-12-8,59.4,56.3,51.1,58.3,54.3,48.2,98,93,78,30.09,29.88,11,1,11,0.45
2012-12-9,65.3,57.6,50.9,64.4,56.7,49.5,98,97,91,30.09,29.76,11,1,11,1.04
2012-12-10,58.5,43.7,35.1,57.9,37.1,23.3,98,78,61,30.06,29.76,13,4,13,0.04
2012-12-11,41.0,35.1,30.7,26.0,22.1,17.5,77,60,40,30.33,30.06,9,1,9,0.00
2012-12-12,46.4,35.2,27.3,28.3,21.6,16.4,83,61,31,30.44,30.30,7,0,7,0.00
2012-12-13,50.4,36.9,27.7,28.6,22.7,17.1,85,60,30,30.50,30.33,4,0,172,0.00
2012-12-14,58.3,42.3,29.7,29.7,23.4,17.0,81,52,24,30.39,30.18,8,1,8,8.05
2012-12-15,58.5,50.4,44.1,49.1,38.0,24.0,86,63,44,30.21,29.85,17,2,17,0.21
2012-12-16,64.9,59.5,55.6,55.8,50.5,43.1,91,73,49,29.88,29.71,12,2,13,0.21
2012-12-17,64.0,55.2,48.6,58.5,52.5,45.2,98,91,62,29.82,29.59,11,2,11,0.21
2012-12-18,50.2,45.7,41.7,44.9,33.9,29.3,87,65,48,29.97,29.74,14,4,14,0.21
2012-12-19,52.9,47.4,40.3,35.7,30.9,27.9,67,53,39,30.15,29.88,8,2,8,0.21
2012-12-20,58.3,47.7,34.3,53.4,37.1,18.4,98,68,44,29.97,29.38,21,6,21,0.75
2012-12-21,38.1,33.3,28.9,22.7,16.1,10.8,63,49,39,30.30,29.76,20,5,20,0.21
2012-12-22,41.2,31.3,24.3,17.3,13.3,10.6,60,47,33,30.39,30.12,8,2,11,0.21
2012-12-23,56.5,43.5,29.5,32.7,22.3,0.0,59,44,27,30.15,29.94,8,2,8,0.21
2012-12-24,53.1,45.8,35.8,49.5,39.8,24.4,98,80,57,30.09,29.82,13,2,13,0.21
2012-12-25,39.6,37.3,35.4,26.8,22.7,20.2,66,55,46,30.21,30.00,14,3,14,0.21
2012-12-26,36.9,34.1,33.4,33.5,28.4,23.3,98,80,66,30.09,29.62,19,5,19,0.79
2012-12-27,37.4,34.6,32.0,25.1,23.3,20.8,71,63,53,30.27,30.06,7,2,11,5.77
2012-12-28,40.1,36.5,33.6,31.9,25.0,21.7,88,63,53,30.24,29.82,9,2,9,0.08
2012-12-29,36.0,33.3,28.8,33.2,26.7,14.2,94,77,54,30.36,29.79,11,2,11,0.00
2012-12-30,36.7,30.3,23.7,21.7,17.0,12.4,73,58,43,30.56,30.36,8,2,11,0.08
2012-12-31,41.0,35.9,29.3,32.8,24.5,21.6,84,64,52,30.41,30.12,10,2,10,0.21
2013-1-1,38.5,36.2,33.1,35.6,30.2,19.1,93,79,56,30.24,30.09,9,2,9,0.13